sensor_id;sensor_type;location;lat;lon;timestamp;pressure;altitude;pressure_sealevel;temperature;humidity
6218;BME280;3142;48.206;11.550;2022-11-20T00:01:23;95194.44;;;7.72;76.09
6218;BME280;3142;48.206;11.550;2022-11-20T00:03:52;95201.88;;;7.76;75.75
6218;BME280;3142;48.206;11.550;2022-11-20T00:06:19;95200.47;;;7.73;75.82
6218;BME280;3142;48.206;11.550;2022-11-20T00:08:46;95196.66;;;7.76;75.97
6218;BME280;3142;48.206;11.550;2022-11-20T00:11:14;95197.25;;;7.78;75.90
6218;BME280;3142;48.206;11.550;2022-11-20T00:13:41;95204.47;;;7.76;75.19
6218;BME280;3142;48.206;11.550;2022-11-20T00:16:09;95195.06;;;7.75;75.75
6218;BME280;3142;48.206;11.550;2022-11-20T00:18:36;95202.88;;;7.75;75.39
6218;BME280;3142;48.206;11.550;2022-11-20T00:21:06;95204.66;;;7.74;75.28
6218;BME280;3142;48.206;11.550;2022-11-20T00:23:32;95211.69;;;7.73;75.62
6218;BME280;3142;48.206;11.550;2022-11-20T00:26:01;95203.66;;;7.75;75.17
6218;BME280;3142;48.206;11.550;2022-11-20T00:28:28;95209.88;;;7.74;76.10
6218;BME280;3142;48.206;11.550;2022-11-20T00:31:00;95206.66;;;7.72;76.09
6218;BME280;3142;48.206;11.550;2022-11-20T00:33:27;95199.47;;;7.74;75.99
6218;BME280;3142;48.206;11.550;2022-11-20T00:35:56;95203.88;;;7.73;76.42
6218;BME280;3142;48.206;11.550;2022-11-20T00:38:26;95200.66;;;7.71;76.57
6218;BME280;3142;48.206;11.550;2022-11-20T00:40:55;95203.88;;;7.73;76.01
6218;BME280;3142;48.206;11.550;2022-11-20T00:43:22;95206.28;;;7.75;76.18
6218;BME280;3142;48.206;11.550;2022-11-20T00:45:48;95206.88;;;7.77;75.91
6218;BME280;3142;48.206;11.550;2022-11-20T00:48:14;95217.50;;;7.76;76.88
6218;BME280;3142;48.206;11.550;2022-11-20T00:50:41;95215.69;;;7.76;76.49
6218;BME280;3142;48.206;11.550;2022-11-20T00:53:07;95215.28;;;7.72;76.31
6218;BME280;3142;48.206;11.550;2022-11-20T00:55:35;95211.88;;;7.72;76.10
6218;BME280;3142;48.206;11.550;2022-11-20T00:58:02;95210.66;;;7.68;76.22
6218;BME280;3142;48.206;11.550;2022-11-20T01:00:28;95220.44;;;7.66;76.04
6218;BME280;3142;48.206;11.550;2022-11-20T01:02:55;95220.44;;;7.66;75.70
6218;BME280;3142;48.206;11.550;2022-11-20T01:05:21;95225.84;;;7.64;75.93
6218;BME280;3142;48.206;11.550;2022-11-20T01:07:48;95223.25;;;7.64;75.92
6218;BME280;3142;48.206;11.550;2022-11-20T01:10:15;95230.06;;;7.65;75.75
6218;BME280;3142;48.206;11.550;2022-11-20T01:12:43;95222.25;;;7.65;75.57
6218;BME280;3142;48.206;11.550;2022-11-20T01:15:30;95231.66;;;7.66;76.35
6218;BME280;3142;48.206;11.550;2022-11-20T01:17:56;95231.50;;;7.68;75.64
6218;BME280;3142;48.206;11.550;2022-11-20T01:20:23;95234.91;;;7.68;75.81
6218;BME280;3142;48.206;11.550;2022-11-20T01:22:49;95238.06;;;7.64;75.91
6218;BME280;3142;48.206;11.550;2022-11-20T01:25:16;95239.44;;;7.60;76.14
6218;BME280;3142;48.206;11.550;2022-11-20T01:27:43;95236.66;;;7.61;75.23
6218;BME280;3142;48.206;11.550;2022-11-20T01:30:11;95232.63;;;7.59;75.10
6218;BME280;3142;48.206;11.550;2022-11-20T01:32:37;95239.03;;;7.56;75.10
6218;BME280;3142;48.206;11.550;2022-11-20T01:35:05;95233.03;;;7.56;75.47
6218;BME280;3142;48.206;11.550;2022-11-20T01:37:31;95241.25;;;7.59;75.68
6218;BME280;3142;48.206;11.550;2022-11-20T01:39:58;95236.84;;;7.60;75.46
6218;BME280;3142;48.206;11.550;2022-11-20T01:42:24;95250.66;;;7.60;75.41
6218;BME280;3142;48.206;11.550;2022-11-20T01:45:43;95241.84;;;7.61;75.79
6218;BME280;3142;48.206;11.550;2022-11-20T01:48:18;95245.06;;;7.63;75.15
6218;BME280;3142;48.206;11.550;2022-11-20T01:50:45;95238.44;;;7.61;75.56
6218;BME280;3142;48.206;11.550;2022-11-20T01:53:14;95243.03;;;7.59;75.63
6218;BME280;3142;48.206;11.550;2022-11-20T01:55:47;95245.25;;;7.62;75.81
6218;BME280;3142;48.206;11.550;2022-11-20T01:58:15;95245.25;;;7.62;75.44
6218;BME280;3142;48.206;11.550;2022-11-20T02:00:44;95245.47;;;7.60;74.56
6218;BME280;3142;48.206;11.550;2022-11-20T02:03:12;95243.66;;;7.61;74.71
6218;BME280;3142;48.206;11.550;2022-11-20T02:05:44;95241.44;;;7.58;75.39
6218;BME280;3142;48.206;11.550;2022-11-20T02:08:12;95240.84;;;7.56;75.86
6218;BME280;3142;48.206;11.550;2022-11-20T02:10:40;95238.03;;;7.57;75.46
6218;BME280;3142;48.206;11.550;2022-11-20T02:13:06;95240.25;;;7.60;75.70
6218;BME280;3142;48.206;11.550;2022-11-20T02:16:00;95233.84;;;7.63;74.72
6218;BME280;3142;48.206;11.550;2022-11-20T02:18:27;95243.47;;;7.62;74.54
6218;BME280;3142;48.206;11.550;2022-11-20T02:20:59;95248.88;;;7.61;75.19
6218;BME280;3142;48.206;11.550;2022-11-20T02:23:31;95241.25;;;7.59;75.28
6218;BME280;3142;48.206;11.550;2022-11-20T02:26:02;95244.59;;;7.53;74.93
6218;BME280;3142;48.206;11.550;2022-11-20T02:28:30;95245.25;;;7.55;74.25
6218;BME280;3142;48.206;11.550;2022-11-20T02:30:57;95244.25;;;7.56;74.61
6218;BME280;3142;48.206;11.550;2022-11-20T02:33:23;95237.59;;;7.54;74.62
6218;BME280;3142;48.206;11.550;2022-11-20T02:35:50;95241.19;;;7.53;74.45
6218;BME280;3142;48.206;11.550;2022-11-20T02:38:17;95233.22;;;7.54;74.85
6218;BME280;3142;48.206;11.550;2022-11-20T02:40:43;95241.84;;;7.55;75.49
6218;BME280;3142;48.206;11.550;2022-11-20T02:43:11;95239.41;;;7.53;74.30
6218;BME280;3142;48.206;11.550;2022-11-20T02:45:38;95241.38;;;7.51;75.47
6218;BME280;3142;48.206;11.550;2022-11-20T02:48:06;95240.03;;;7.55;75.05
6218;BME280;3142;48.206;11.550;2022-11-20T02:50:32;95247.19;;;7.53;75.17
6218;BME280;3142;48.206;11.550;2022-11-20T02:52:59;95243.00;;;7.52;75.39
6218;BME280;3142;48.206;11.550;2022-11-20T02:55:25;95244.00;;;7.51;74.52
6218;BME280;3142;48.206;11.550;2022-11-20T02:57:51;95240.03;;;7.55;75.54
6218;BME280;3142;48.206;11.550;2022-11-20T03:00:19;95234.38;;;7.52;74.41
6218;BME280;3142;48.206;11.550;2022-11-20T03:02:46;95231.19;;;7.50;74.79
6218;BME280;3142;48.206;11.550;2022-11-20T03:05:13;95242.38;;;7.50;74.63
6218;BME280;3142;48.206;11.550;2022-11-20T03:07:39;95249.00;;;7.53;74.28
6218;BME280;3142;48.206;11.550;2022-11-20T03:10:06;95238.97;;;7.50;75.11
6218;BME280;3142;48.206;11.550;2022-11-20T03:12:33;95236.34;;;7.43;74.56
6218;BME280;3142;48.206;11.550;2022-11-20T03:14:59;95243.16;;;7.44;74.72
6218;BME280;3142;48.206;11.550;2022-11-20T03:17:27;95239.78;;;7.50;75.32
6218;BME280;3142;48.206;11.550;2022-11-20T03:19:54;95231.97;;;7.50;74.49
6218;BME280;3142;48.206;11.550;2022-11-20T03:22:21;95232.19;;;7.49;74.14
6218;BME280;3142;48.206;11.550;2022-11-20T03:24:47;95230.97;;;7.51;73.88
6218;BME280;3142;48.206;11.550;2022-11-20T03:27:13;95225.78;;;7.51;74.61
6218;BME280;3142;48.206;11.550;2022-11-20T03:29:40;95228.56;;;7.50;73.55
6218;BME280;3142;48.206;11.550;2022-11-20T03:32:07;95220.75;;;7.50;74.01
6218;BME280;3142;48.206;11.550;2022-11-20T03:34:34;95225.56;;;7.46;73.19
6218;BME280;3142;48.206;11.550;2022-11-20T03:37:01;95230.16;;;7.44;74.01
6218;BME280;3142;48.206;11.550;2022-11-20T03:39:27;95229.34;;;7.43;73.51
6218;BME280;3142;48.206;11.550;2022-11-20T03:41:54;95229.34;;;7.43;73.88
6218;BME280;3142;48.206;11.550;2022-11-20T03:44:21;95226.34;;;7.47;73.31
6218;BME280;3142;48.206;11.550;2022-11-20T03:46:47;95227.16;;;7.47;72.83
6218;BME280;3142;48.206;11.550;2022-11-20T03:49:14;95227.16;;;7.47;72.54
6218;BME280;3142;48.206;11.550;2022-11-20T03:51:41;95235.16;;;7.46;73.71
6218;BME280;3142;48.206;11.550;2022-11-20T03:54:08;95232.19;;;7.49;73.08
6218;BME280;3142;48.206;11.550;2022-11-20T03:56:37;95231.38;;;7.48;73.29
6218;BME280;3142;48.206;11.550;2022-11-20T03:59:04;95231.75;;;7.45;72.37
6218;BME280;3142;48.206;11.550;2022-11-20T04:01:32;95238.56;;;7.46;72.59
6218;BME280;3142;48.206;11.550;2022-11-20T04:03:59;95237.16;;;7.43;72.02
6218;BME280;3142;48.206;11.550;2022-11-20T04:06:28;95239.16;;;7.41;71.85
6218;BME280;3142;48.206;11.550;2022-11-20T04:08:57;95241.16;;;7.46;72.13
6218;BME280;3142;48.206;11.550;2022-11-20T04:11:27;95245.34;;;7.40;72.92
6218;BME280;3142;48.206;11.550;2022-11-20T04:13:55;95235.56;;;7.42;72.46
6218;BME280;3142;48.206;11.550;2022-11-20T04:16:23;95237.34;;;7.42;72.68
6218;BME280;3142;48.206;11.550;2022-11-20T04:18:52;95237.97;;;7.44;71.82
6218;BME280;3142;48.206;11.550;2022-11-20T04:21:19;95236.97;;;7.45;72.54
6218;BME280;3142;48.206;11.550;2022-11-20T04:23:46;95238.16;;;7.42;71.84
6218;BME280;3142;48.206;11.550;2022-11-20T04:26:14;95237.16;;;7.43;72.14
6218;BME280;3142;48.206;11.550;2022-11-20T04:28:40;95242.38;;;7.43;71.94
6218;BME280;3142;48.206;11.550;2022-11-20T04:31:08;95237.97;;;7.44;72.67
6218;BME280;3142;48.206;11.550;2022-11-20T04:33:36;95239.38;;;7.47;71.42
6218;BME280;3142;48.206;11.550;2022-11-20T04:36:04;95231.75;;;7.45;72.20
6218;BME280;3142;48.206;11.550;2022-11-20T04:38:31;95235.56;;;7.49;71.36
6218;BME280;3142;48.206;11.550;2022-11-20T04:40:59;95233.78;;;7.50;71.73
6218;BME280;3142;48.206;11.550;2022-11-20T04:43:27;95237.19;;;7.50;72.11
6218;BME280;3142;48.206;11.550;2022-11-20T04:45:54;95238.59;;;7.53;71.39
6218;BME280;3142;48.206;11.550;2022-11-20T04:48:21;95239.78;;;7.50;72.08
6218;BME280;3142;48.206;11.550;2022-11-20T04:50:48;95248.41;;;7.51;71.21
6218;BME280;3142;48.206;11.550;2022-11-20T04:53:15;95248.59;;;7.49;71.62
6218;BME280;3142;48.206;11.550;2022-11-20T04:55:41;95245.19;;;7.49;71.15
6218;BME280;3142;48.206;11.550;2022-11-20T04:58:08;95245.19;;;7.49;71.47
6218;BME280;3142;48.206;11.550;2022-11-20T05:00:36;95249.97;;;7.45;72.24
6218;BME280;3142;48.206;11.550;2022-11-20T05:03:02;95239.50;;;7.38;71.83
6218;BME280;3142;48.206;11.550;2022-11-20T05:05:29;95246.31;;;7.39;72.61
6218;BME280;3142;48.206;11.550;2022-11-20T05:07:56;95243.91;;;7.38;72.10
6218;BME280;3142;48.206;11.550;2022-11-20T05:10:23;95244.09;;;7.36;72.54
6218;BME280;3142;48.206;11.550;2022-11-20T05:12:49;95241.69;;;7.35;71.65
6218;BME280;3142;48.206;11.550;2022-11-20T05:15:16;95241.69;;;7.35;72.18
6218;BME280;3142;48.206;11.550;2022-11-20T05:17:47;95241.69;;;7.35;72.46
6218;BME280;3142;48.206;11.550;2022-11-20T05:20:14;95241.69;;;7.35;72.64
6218;BME280;3142;48.206;11.550;2022-11-20T05:22:41;95239.09;;;7.35;71.81
6218;BME280;3142;48.206;11.550;2022-11-20T05:25:08;95243.31;;;7.36;72.04
6218;BME280;3142;48.206;11.550;2022-11-20T05:27:34;95239.91;;;7.35;72.00
6218;BME280;3142;48.206;11.550;2022-11-20T05:30:00;95248.31;;;7.37;71.67
6218;BME280;3142;48.206;11.550;2022-11-20T05:32:27;95234.50;;;7.37;72.49
6218;BME280;3142;48.206;11.550;2022-11-20T05:34:55;95246.72;;;7.36;71.41
6218;BME280;3142;48.206;11.550;2022-11-20T05:37:21;95241.09;;;7.33;72.54
6218;BME280;3142;48.206;11.550;2022-11-20T05:39:48;95243.09;;;7.31;71.29
6218;BME280;3142;48.206;11.550;2022-11-20T05:42:14;95247.28;;;7.32;72.67
6218;BME280;3142;48.206;11.550;2022-11-20T05:44:56;95245.09;;;7.29;72.59
6218;BME280;3142;48.206;11.550;2022-11-20T05:47:22;95232.88;;;7.29;71.52
6218;BME280;3142;48.206;11.550;2022-11-20T05:49:49;95244.28;;;7.28;71.86
6218;BME280;3142;48.206;11.550;2022-11-20T05:52:17;95243.63;;;7.26;72.11
6218;BME280;3142;48.206;11.550;2022-11-20T05:54:43;95250.03;;;7.24;71.87
6218;BME280;3142;48.206;11.550;2022-11-20T05:57:09;95240.81;;;7.21;72.06
6218;BME280;3142;48.206;11.550;2022-11-20T05:59:36;95247.63;;;7.22;72.00
6218;BME280;3142;48.206;11.550;2022-11-20T06:02:02;95248.41;;;7.23;72.14
6218;BME280;3142;48.206;11.550;2022-11-20T06:04:29;95243.84;;;7.25;72.50
6218;BME280;3142;48.206;11.550;2022-11-20T06:06:55;95252.03;;;7.22;72.04
6218;BME280;3142;48.206;11.550;2022-11-20T06:09:23;95249.03;;;7.25;71.49
6218;BME280;3142;48.206;11.550;2022-11-20T06:11:50;95256.38;;;7.15;72.38
6218;BME280;3142;48.206;11.550;2022-11-20T06:14:16;95256.38;;;7.15;71.14
6218;BME280;3142;48.206;11.550;2022-11-20T06:16:43;95250.53;;;7.12;71.25
6218;BME280;3142;48.206;11.550;2022-11-20T06:19:09;95248.31;;;7.09;71.70
6218;BME280;3142;48.206;11.550;2022-11-20T06:21:35;95248.31;;;7.09;72.30
6218;BME280;3142;48.206;11.550;2022-11-20T06:24:02;95247.16;;;7.12;71.22
6218;BME280;3142;48.206;11.550;2022-11-20T06:26:30;95240.91;;;7.06;72.06
6218;BME280;3142;48.206;11.550;2022-11-20T06:28:57;95257.13;;;7.08;71.32
6218;BME280;3142;48.206;11.550;2022-11-20T06:31:24;95254.53;;;7.08;71.14
6218;BME280;3142;48.206;11.550;2022-11-20T06:33:51;95256.53;;;7.06;72.16
6218;BME280;3142;48.206;11.550;2022-11-20T06:36:19;95258.53;;;7.11;71.28
6218;BME280;3142;48.206;11.550;2022-11-20T06:38:46;95252.91;;;7.07;71.24
6218;BME280;3142;48.206;11.550;2022-11-20T06:41:14;95258.13;;;7.07;71.51
6218;BME280;3142;48.206;11.550;2022-11-20T06:43:43;95264.13;;;7.08;71.70
6218;BME280;3142;48.206;11.550;2022-11-20T06:46:10;95264.13;;;7.08;71.35
6218;BME280;3142;48.206;11.550;2022-11-20T06:48:37;95260.13;;;7.05;70.95
6218;BME280;3142;48.206;11.550;2022-11-20T06:51:04;95255.91;;;7.04;70.41
6218;BME280;3142;48.206;11.550;2022-11-20T06:53:31;95260.13;;;7.05;70.17
6218;BME280;3142;48.206;11.550;2022-11-20T06:55:58;95266.13;;;7.06;69.72
6218;BME280;3142;48.206;11.550;2022-11-20T06:58:26;95269.34;;;7.08;70.15
6218;BME280;3142;48.206;11.550;2022-11-20T07:00:57;95283.56;;;7.12;70.01
6218;BME280;3142;48.206;11.550;2022-11-20T07:03:24;95285.53;;;7.10;69.43
6218;BME280;3142;48.206;11.550;2022-11-20T07:05:50;95285.53;;;7.10;69.25
6218;BME280;3142;48.206;11.550;2022-11-20T07:08:17;95283.19;;;7.15;68.56
6218;BME280;3142;48.206;11.550;2022-11-20T07:10:43;95286.81;;;7.14;67.92
6218;BME280;3142;48.206;11.550;2022-11-20T07:13:10;95283.41;;;7.13;68.94
6218;BME280;3142;48.206;11.550;2022-11-20T07:15:36;95291.19;;;7.13;68.15
6218;BME280;3142;48.206;11.550;2022-11-20T07:18:04;95285.34;;;7.11;68.43
6218;BME280;3142;48.206;11.550;2022-11-20T07:20:31;95287.78;;;7.13;68.00
6218;BME280;3142;48.206;11.550;2022-11-20T07:22:58;95295.59;;;7.13;68.60
6218;BME280;3142;48.206;11.550;2022-11-20T07:25:25;95290.41;;;7.13;68.22
6218;BME280;3142;48.206;11.550;2022-11-20T07:27:52;95293.16;;;7.11;68.01
6218;BME280;3142;48.206;11.550;2022-11-20T07:30:18;95293.81;;;7.13;68.94
6218;BME280;3142;48.206;11.550;2022-11-20T07:32:46;95301.03;;;7.18;67.99
6218;BME280;3142;48.206;11.550;2022-11-20T07:35:14;95289.81;;;7.18;68.92
6218;BME280;3142;48.206;11.550;2022-11-20T07:37:41;95298.84;;;7.22;67.82
6218;BME280;3142;48.206;11.550;2022-11-20T07:40:08;95294.03;;;7.19;68.19
6218;BME280;3142;48.206;11.550;2022-11-20T07:42:35;95294.41;;;7.16;68.60
6218;BME280;3142;48.206;11.550;2022-11-20T07:45:01;95290.63;;;7.18;68.60
6218;BME280;3142;48.206;11.550;2022-11-20T07:47:28;95299.84;;;7.21;68.99
6218;BME280;3142;48.206;11.550;2022-11-20T07:49:54;95292.66;;;7.23;69.44
6218;BME280;3142;48.206;11.550;2022-11-20T07:52:22;95298.03;;;7.21;69.32
6218;BME280;3142;48.206;11.550;2022-11-20T07:54:48;95296.06;;;7.23;69.48
6218;BME280;3142;48.206;11.550;2022-11-20T07:57:15;95296.66;;;7.25;69.28
6218;BME280;3142;48.206;11.550;2022-11-20T07:59:41;95293.31;;;7.31;70.27
6218;BME280;3142;48.206;11.550;2022-11-20T08:02:09;95304.34;;;7.33;70.11
6218;BME280;3142;48.206;11.550;2022-11-20T08:04:36;95307.56;;;7.35;69.27
6218;BME280;3142;48.206;11.550;2022-11-20T08:07:02;95299.13;;;7.33;69.03
6218;BME280;3142;48.206;11.550;2022-11-20T08:09:30;95300.00;;;7.40;69.49
6218;BME280;3142;48.206;11.550;2022-11-20T08:11:57;95308.16;;;7.37;70.05
6218;BME280;3142;48.206;11.550;2022-11-20T08:14:41;95307.44;;;7.43;69.87
6218;BME280;3142;48.206;11.550;2022-11-20T08:17:08;95309.66;;;7.47;70.10
6218;BME280;3142;48.206;11.550;2022-11-20T08:19:34;95306.66;;;7.50;69.36
6218;BME280;3142;48.206;11.550;2022-11-20T08:22:01;95306.47;;;7.51;69.69
6218;BME280;3142;48.206;11.550;2022-11-20T08:24:27;95310.84;;;7.44;68.25
6218;BME280;3142;48.206;11.550;2022-11-20T08:26:57;95315.44;;;7.42;68.90
6218;BME280;3142;48.206;11.550;2022-11-20T08:29:24;95308.03;;;7.46;69.71
6218;BME280;3142;48.206;11.550;2022-11-20T08:31:50;95313.84;;;7.48;68.55
6218;BME280;3142;48.206;11.550;2022-11-20T08:34:16;95312.44;;;7.45;69.72
6218;BME280;3142;48.206;11.550;2022-11-20T08:36:43;95310.25;;;7.49;68.62
6218;BME280;3142;48.206;11.550;2022-11-20T08:39:12;95314.47;;;7.50;68.22
6218;BME280;3142;48.206;11.550;2022-11-20T08:41:38;95310.47;;;7.54;68.13
6218;BME280;3142;48.206;11.550;2022-11-20T08:44:07;95308.69;;;7.54;68.45
6218;BME280;3142;48.206;11.550;2022-11-20T08:46:35;95313.34;;;7.59;68.71
6218;BME280;3142;48.206;11.550;2022-11-20T08:49:02;95307.94;;;7.60;68.46
6218;BME280;3142;48.206;11.550;2022-11-20T08:51:29;95317.75;;;7.65;68.47
6218;BME280;3142;48.206;11.550;2022-11-20T08:53:55;95307.34;;;7.65;67.44
6218;BME280;3142;48.206;11.550;2022-11-20T08:56:22;95330.59;;;7.66;66.58
6218;BME280;3142;48.206;11.550;2022-11-20T08:58:50;95310.34;;;7.62;67.62
6218;BME280;3142;48.206;11.550;2022-11-20T09:01:18;95310.16;;;7.63;67.75
6218;BME280;3142;48.206;11.550;2022-11-20T09:03:45;95335.19;;;7.64;66.37
6218;BME280;3142;48.206;11.550;2022-11-20T09:06:12;95309.13;;;7.58;67.29
6218;BME280;3142;48.206;11.550;2022-11-20T09:08:39;95309.34;;;7.63;66.67
6218;BME280;3142;48.206;11.550;2022-11-20T09:11:06;95312.19;;;7.68;67.09
6218;BME280;3142;48.206;11.550;2022-11-20T09:13:34;95303.38;;;7.69;67.39
6218;BME280;3142;48.206;11.550;2022-11-20T09:16:03;95308.22;;;7.79;66.42
6218;BME280;3142;48.206;11.550;2022-11-20T09:18:31;95305.25;;;7.82;66.46
6218;BME280;3142;48.206;11.550;2022-11-20T09:20:58;95301.22;;;7.79;66.82
6218;BME280;3142;48.206;11.550;2022-11-20T09:23:25;95300.66;;;7.84;66.24
6218;BME280;3142;48.206;11.550;2022-11-20T09:25:52;95299.41;;;7.80;65.60
6218;BME280;3142;48.206;11.550;2022-11-20T09:28:21;95291.66;;;7.86;66.72
6218;BME280;3142;48.206;11.550;2022-11-20T09:30:47;95294.25;;;7.86;66.62
6218;BME280;3142;48.206;11.550;2022-11-20T09:33:14;95294.28;;;7.93;66.02
6218;BME280;3142;48.206;11.550;2022-11-20T09:35:42;95298.28;;;7.89;64.97
6218;BME280;3142;48.206;11.550;2022-11-20T09:38:10;95294.47;;;7.91;65.19
6218;BME280;3142;48.206;11.550;2022-11-20T09:40:43;95279.91;;;7.97;65.72
6218;BME280;3142;48.206;11.550;2022-11-20T09:43:16;95291.31;;;8.02;65.68
6218;BME280;3142;48.206;11.550;2022-11-20T09:45:59;95295.94;;;8.07;65.36
6218;BME280;3142;48.206;11.550;2022-11-20T09:48:39;95302.41;;;8.11;66.26
6218;BME280;3142;48.206;11.550;2022-11-20T09:51:16;95291.59;;;8.14;65.71
6218;BME280;3142;48.206;11.550;2022-11-20T09:53:59;95287.19;;;8.21;64.77
6218;BME280;3142;48.206;11.550;2022-11-20T09:56:28;95286.41;;;8.27;64.23
6218;BME280;3142;48.206;11.550;2022-11-20T09:58:57;95281.81;;;8.29;65.67
6218;BME280;3142;48.206;11.550;2022-11-20T10:01:29;95282.47;;;8.38;65.70
6218;BME280;3142;48.206;11.550;2022-11-20T10:03:59;95270.66;;;8.49;64.01
6218;BME280;3142;48.206;11.550;2022-11-20T10:06:31;95279.72;;;8.59;63.47
6218;BME280;3142;48.206;11.550;2022-11-20T10:09:03;95268.88;;;8.63;63.58
6218;BME280;3142;48.206;11.550;2022-11-20T10:11:46;95271.53;;;8.82;63.84
6218;BME280;3142;48.206;11.550;2022-11-20T10:14:21;95268.09;;;8.88;63.21
6218;BME280;3142;48.206;11.550;2022-11-20T10:16:59;95266.09;;;8.90;63.16
6218;BME280;3142;48.206;11.550;2022-11-20T10:19:41;95265.13;;;8.92;63.38
6218;BME280;3142;48.206;11.550;2022-11-20T10:22:23;95268.72;;;8.84;62.17
6218;BME280;3142;48.206;11.550;2022-11-20T10:24:56;95267.50;;;8.73;62.61
6218;BME280;3142;48.206;11.550;2022-11-20T10:27:47;95270.94;;;8.80;63.58
6218;BME280;3142;48.206;11.550;2022-11-20T10:30:18;95275.16;;;8.81;63.80
6218;BME280;3142;48.206;11.550;2022-11-20T10:32:50;95272.72;;;8.86;61.95
6218;BME280;3142;48.206;11.550;2022-11-20T10:35:21;95271.53;;;8.82;62.93
6218;BME280;3142;48.206;11.550;2022-11-20T10:37:55;95264.31;;;8.84;62.38
6218;BME280;3142;48.206;11.550;2022-11-20T10:40:29;95276.16;;;8.94;62.85
6218;BME280;3142;48.206;11.550;2022-11-20T10:43:00;95262.09;;;9.01;62.03
6218;BME280;3142;48.206;11.550;2022-11-20T10:45:36;95268.53;;;9.18;61.76
6218;BME280;3142;48.206;11.550;2022-11-20T10:48:12;95266.50;;;9.40;61.10
6218;BME280;3142;48.206;11.550;2022-11-20T10:50:49;95266.44;;;9.73;59.68
6218;BME280;3142;48.206;11.550;2022-11-20T10:53:44;95260.53;;;9.98;58.25
6218;BME280;3142;48.206;11.550;2022-11-20T10:56:17;95265.41;;;9.81;59.13
6218;BME280;3142;48.206;11.550;2022-11-20T10:58:52;95263.63;;;9.68;59.44
6218;BME280;3142;48.206;11.550;2022-11-20T11:01:21;95259.69;;;9.46;59.67
6218;BME280;3142;48.206;11.550;2022-11-20T11:03:48;95255.66;;;9.43;61.06
6218;BME280;3142;48.206;11.550;2022-11-20T11:06:20;95250.25;;;9.38;61.13
6218;BME280;3142;48.206;11.550;2022-11-20T11:08:51;95251.66;;;9.28;61.21
6218;BME280;3142;48.206;11.550;2022-11-20T11:11:22;95262.72;;;9.23;61.69
6218;BME280;3142;48.206;11.550;2022-11-20T11:13:49;95247.81;;;9.30;61.71
6218;BME280;3142;48.206;11.550;2022-11-20T11:16:21;95253.63;;;9.45;61.41
6218;BME280;3142;48.206;11.550;2022-11-20T11:18:48;95232.75;;;9.52;61.33
6218;BME280;3142;48.206;11.550;2022-11-20T11:21:21;95238.75;;;9.53;60.33
6218;BME280;3142;48.206;11.550;2022-11-20T11:23:57;95232.72;;;9.59;60.37
6218;BME280;3142;48.206;11.550;2022-11-20T11:26:24;95235.53;;;9.57;61.25
6218;BME280;3142;48.206;11.550;2022-11-20T11:28:56;95236.34;;;9.58;60.89
6218;BME280;3142;48.206;11.550;2022-11-20T11:31:24;95227.69;;;9.57;61.14
6218;BME280;3142;48.206;11.550;2022-11-20T11:33:51;95225.47;;;9.74;60.08
6218;BME280;3142;48.206;11.550;2022-11-20T11:36:20;95227.09;;;9.62;60.36
6218;BME280;3142;48.206;11.550;2022-11-20T11:38:52;95222.09;;;9.54;60.73
6218;BME280;3142;48.206;11.550;2022-11-20T11:41:22;95224.91;;;9.45;60.33
6218;BME280;3142;48.206;11.550;2022-11-20T11:43:52;95226.94;;;9.37;60.50
6218;BME280;3142;48.206;11.550;2022-11-20T11:46:38;95231.44;;;9.81;59.01
6218;BME280;3142;48.206;11.550;2022-11-20T11:49:15;95230.13;;;10.10;58.84
6218;BME280;3142;48.206;11.550;2022-11-20T11:51:52;95227.81;;;9.82;58.49
6218;BME280;3142;48.206;11.550;2022-11-20T11:54:28;95231.28;;;9.69;58.67
6218;BME280;3142;48.206;11.550;2022-11-20T11:57:00;95234.91;;;9.75;58.71
6218;BME280;3142;48.206;11.550;2022-11-20T11:59:33;95226.09;;;9.63;58.89
6218;BME280;3142;48.206;11.550;2022-11-20T12:02:20;95231.34;;;9.43;58.90
6218;BME280;3142;48.206;11.550;2022-11-20T12:04:54;95235.78;;;9.29;59.58
6218;BME280;3142;48.206;11.550;2022-11-20T12:07:35;95226.78;;;9.12;60.52
6218;BME280;3142;48.206;11.550;2022-11-20T12:10:14;95233.63;;;9.06;62.04
6218;BME280;3142;48.206;11.550;2022-11-20T12:12:44;95231.41;;;8.97;63.38
6218;BME280;3142;48.206;11.550;2022-11-20T12:15:23;95235.41;;;8.86;63.10
6218;BME280;3142;48.206;11.550;2022-11-20T12:17:52;95239.41;;;8.75;65.29
6218;BME280;3142;48.206;11.550;2022-11-20T12:20:19;95232.41;;;8.69;65.57
6218;BME280;3142;48.206;11.550;2022-11-20T12:22:53;95233.59;;;8.67;66.22
6218;BME280;3142;48.206;11.550;2022-11-20T12:25:25;95229.41;;;8.66;66.13
6218;BME280;3142;48.206;11.550;2022-11-20T12:28:19;95229.78;;;8.69;65.05
6218;BME280;3142;48.206;11.550;2022-11-20T12:30:59;95228.97;;;8.75;64.65
6218;BME280;3142;48.206;11.550;2022-11-20T12:33:47;95212.72;;;8.73;65.26
6218;BME280;3142;48.206;11.550;2022-11-20T12:36:26;95216.13;;;8.74;64.77
6218;BME280;3142;48.206;11.550;2022-11-20T12:39:00;95219.16;;;8.71;65.40
6218;BME280;3142;48.206;11.550;2022-11-20T12:41:43;95209.53;;;8.65;66.06
6218;BME280;3142;48.206;11.550;2022-11-20T12:44:52;95223.94;;;8.60;66.46
6218;BME280;3142;48.206;11.550;2022-11-20T12:47:47;95214.94;;;8.56;66.07
6218;BME280;3142;48.206;11.550;2022-11-20T12:50:27;95241.81;;;8.57;65.35
6218;BME280;3142;48.206;11.550;2022-11-20T12:52:57;95224.34;;;8.51;66.43
6218;BME280;3142;48.206;11.550;2022-11-20T12:55:42;95224.94;;;8.46;66.52
6218;BME280;3142;48.206;11.550;2022-11-20T12:58:19;95220.13;;;8.43;66.09
6218;BME280;3142;48.206;11.550;2022-11-20T13:00:55;95224.34;;;8.44;67.02
6218;BME280;3142;48.206;11.550;2022-11-20T13:03:37;95221.94;;;8.43;67.20
6218;BME280;3142;48.206;11.550;2022-11-20T13:06:12;95225.94;;;8.45;67.04
6218;BME280;3142;48.206;11.550;2022-11-20T13:08:41;95229.94;;;8.41;67.76
6218;BME280;3142;48.206;11.550;2022-11-20T13:11:14;95211.69;;;8.35;66.84
6218;BME280;3142;48.206;11.550;2022-11-20T13:13:56;95215.25;;;8.33;67.98
6218;BME280;3142;48.206;11.550;2022-11-20T13:16:33;95218.47;;;8.29;68.36
6218;BME280;3142;48.206;11.550;2022-11-20T13:19:04;95209.44;;;8.31;68.26
6218;BME280;3142;48.206;11.550;2022-11-20T13:21:37;95213.66;;;8.26;68.87
6218;BME280;3142;48.206;11.550;2022-11-20T13:24:04;95210.03;;;8.27;69.26
6218;BME280;3142;48.206;11.550;2022-11-20T13:26:31;95207.03;;;8.23;69.54
6218;BME280;3142;48.206;11.550;2022-11-20T13:29:08;95207.03;;;8.23;69.03
6218;BME280;3142;48.206;11.550;2022-11-20T13:31:39;95203.19;;;8.19;69.28
6218;BME280;3142;48.206;11.550;2022-11-20T13:34:11;95208.22;;;8.14;69.39
6218;BME280;3142;48.206;11.550;2022-11-20T13:36:48;95213.63;;;8.13;69.86